sensor_id;sensor_type;location;lat;lon;timestamp;pressure;altitude;pressure_sealevel;temperature;humidity
17593;BME280;8915;51.760;14.300;2023-05-03T00:01:27;102046.81;;;5.19;81.05
17593;BME280;8915;51.760;14.300;2023-05-03T00:03:53;102058.09;;;5.20;80.62
17593;BME280;8915;51.760;14.300;2023-05-03T00:06:20;102047.91;;;5.23;80.75
17593;BME280;8915;51.760;14.300;2023-05-03T00:08:47;102055.78;;;5.28;81.01
17593;BME280;8915;51.760;14.300;2023-05-03T00:11:13;102055.03;;;5.33;81.16
17593;BME280;8915;51.760;14.300;2023-05-03T00:13:41;102060.78;;;5.35;81.09
17593;BME280;8915;51.760;14.300;2023-05-03T00:16:07;102054.25;;;5.37;81.31
17593;BME280;8915;51.760;14.300;2023-05-03T00:18:34;102050.34;;;5.40;81.34
17593;BME280;8915;51.760;14.300;2023-05-03T00:21:00;102047.22;;;5.38;81.11
17593;BME280;8915;51.760;14.300;2023-05-03T00:23:27;102048.53;;;5.40;80.97
17593;BME280;8915;51.760;14.300;2023-05-03T00:25:54;102049.81;;;5.38;80.69
17593;BME280;8915;51.760;14.300;2023-05-03T00:28:21;102042.75;;;5.38;80.87
17593;BME280;8915;51.760;14.300;2023-05-03T00:30:49;102044.03;;;5.36;81.13
17593;BME280;8915;51.760;14.300;2023-05-03T00:33:16;102037.47;;;5.33;81.00
17593;BME280;8915;51.760;14.300;2023-05-03T00:35:44;102041.91;;;5.28;80.93
17593;BME280;8915;51.760;14.300;2023-05-03T00:38:11;102037.97;;;5.25;81.27
17593;BME280;8915;51.760;14.300;2023-05-03T00:40:38;102043.97;;;5.21;81.05
17593;BME280;8915;51.760;14.300;2023-05-03T00:43:05;102051.78;;;5.16;81.12
17593;BME280;8915;51.760;14.300;2023-05-03T00:45:32;102047.31;;;5.11;81.57
17593;BME280;8915;51.760;14.300;2023-05-03T00:48:00;102043.63;;;5.07;81.44
17593;BME280;8915;51.760;14.300;2023-05-03T00:50:27;102042.81;;;5.02;81.50
17593;BME280;8915;51.760;14.300;2023-05-03T00:52:53;102040.94;;;4.97;81.81
17593;BME280;8915;51.760;14.300;2023-05-03T00:55:20;102041.44;;;4.89;81.94
17593;BME280;8915;51.760;14.300;2023-05-03T00:57:46;102033.53;;;4.84;81.86
17593;BME280;8915;51.760;14.300;2023-05-03T01:00:14;102037.94;;;4.79;81.81
17593;BME280;8915;51.760;14.300;2023-05-03T01:02:42;102030.56;;;4.71;81.72
17593;BME280;8915;51.760;14.300;2023-05-03T01:05:09;102035.78;;;4.66;82.07
17593;BME280;8915;51.760;14.300;2023-05-03T01:07:42;102033.63;;;4.63;82.24
17593;BME280;8915;51.760;14.300;2023-05-03T01:10:17;102030.97;;;4.58;82.65
17593;BME280;8915;51.760;14.300;2023-05-03T01:12:52;102036.41;;;4.51;82.92
17593;BME280;8915;51.760;14.300;2023-05-03T01:15:28;102040.84;;;4.46;82.70
17593;BME280;8915;51.760;14.300;2023-05-03T01:18:06;102044.44;;;4.40;82.89
17593;BME280;8915;51.760;14.300;2023-05-03T01:20:42;102038.38;;;4.34;82.81
17593;BME280;8915;51.760;14.300;2023-05-03T01:23:14;102039.63;;;4.27;82.64
17593;BME280;8915;51.760;14.300;2023-05-03T01:25:45;102034.56;;;4.20;82.69
17593;BME280;8915;51.760;14.300;2023-05-03T01:28:11;102038.47;;;4.18;82.59
17593;BME280;8915;51.760;14.300;2023-05-03T01:30:38;102031.63;;;4.12;82.29
17593;BME280;8915;51.760;14.300;2023-05-03T01:33:10;102028.25;;;4.11;82.97
17593;BME280;8915;51.760;14.300;2023-05-03T01:35:40;102038.88;;;4.05;83.41
17593;BME280;8915;51.760;14.300;2023-05-03T01:38:07;102027.81;;;3.98;82.99
17593;BME280;8915;51.760;14.300;2023-05-03T01:40:41;102024.16;;;3.94;83.05
17593;BME280;8915;51.760;14.300;2023-05-03T01:43:10;102028.03;;;3.91;83.31
17593;BME280;8915;51.760;14.300;2023-05-03T01:45:38;102030.34;;;3.88;82.54
17593;BME280;8915;51.760;14.300;2023-05-03T01:48:08;102028.47;;;3.83;82.39
17593;BME280;8915;51.760;14.300;2023-05-03T01:50:35;102029.50;;;3.82;83.09
17593;BME280;8915;51.760;14.300;2023-05-03T01:53:02;102047.19;;;3.75;81.83
17593;BME280;8915;51.760;14.300;2023-05-03T01:55:28;102039.03;;;3.72;81.40
17593;BME280;8915;51.760;14.300;2023-05-03T01:57:54;102034.63;;;3.72;82.15
17593;BME280;8915;51.760;14.300;2023-05-03T02:00:23;102035.09;;;3.69;81.35
17593;BME280;8915;51.760;14.300;2023-05-03T02:02:49;102036.69;;;3.70;81.93
17593;BME280;8915;51.760;14.300;2023-05-03T02:05:16;102040.06;;;3.71;82.47
17593;BME280;8915;51.760;14.300;2023-05-03T02:07:42;102039.59;;;3.74;82.47
17593;BME280;8915;51.760;14.300;2023-05-03T02:10:09;102033.88;;;3.77;82.71
17593;BME280;8915;51.760;14.300;2023-05-03T02:12:38;102038.09;;;3.78;83.08
17593;BME280;8915;51.760;14.300;2023-05-03T02:15:06;102049.06;;;3.80;83.20
17593;BME280;8915;51.760;14.300;2023-05-03T02:17:34;102038.91;;;3.83;83.59
17593;BME280;8915;51.760;14.300;2023-05-03T02:20:03;102031.88;;;3.84;83.85
17593;BME280;8915;51.760;14.300;2023-05-03T02:22:30;102034.78;;;3.87;84.14
17593;BME280;8915;51.760;14.300;2023-05-03T02:24:57;102033.97;;;3.87;84.34
17593;BME280;8915;51.760;14.300;2023-05-03T02:27:23;102038.19;;;3.88;84.37
17593;BME280;8915;51.760;14.300;2023-05-03T02:29:50;102035.59;;;3.88;83.90
17593;BME280;8915;51.760;14.300;2023-05-03T02:32:17;102034.31;;;3.90;83.97
17593;BME280;8915;51.760;14.300;2023-05-03T02:34:47;102038.72;;;3.90;84.25
17593;BME280;8915;51.760;14.300;2023-05-03T02:37:18;102040.53;;;3.89;84.72
17593;BME280;8915;51.760;14.300;2023-05-03T02:39:46;102042.91;;;3.91;84.81
17593;BME280;8915;51.760;14.300;2023-05-03T02:42:14;102039.53;;;3.90;84.58
17593;BME280;8915;51.760;14.300;2023-05-03T02:44:41;102041.88;;;3.92;84.82
17593;BME280;8915;51.760;14.300;2023-05-03T02:47:08;102043.16;;;3.89;84.58
17593;BME280;8915;51.760;14.300;2023-05-03T02:49:37;102041.06;;;3.86;84.60
17593;BME280;8915;51.760;14.300;2023-05-03T02:52:06;102038.44;;;3.86;84.51
17593;BME280;8915;51.760;14.300;2023-05-03T02:54:33;102048.09;;;3.86;84.54
17593;BME280;8915;51.760;14.300;2023-05-03T02:57:05;102047.03;;;3.87;84.79
17593;BME280;8915;51.760;14.300;2023-05-03T02:59:31;102049.41;;;3.88;84.57
17593;BME280;8915;51.760;14.300;2023-05-03T03:01:59;102051.78;;;3.90;85.01
17593;BME280;8915;51.760;14.300;2023-05-03T03:04:26;102045.75;;;3.89;85.13
17593;BME280;8915;51.760;14.300;2023-05-03T03:06:52;102051.56;;;3.91;84.73
17593;BME280;8915;51.760;14.300;2023-05-03T03:09:20;102050.28;;;3.94;84.51
17593;BME280;8915;51.760;14.300;2023-05-03T03:11:47;102059.97;;;3.98;84.71
17593;BME280;8915;51.760;14.300;2023-05-03T03:14:14;102059.75;;;4.00;84.54
17593;BME280;8915;51.760;14.300;2023-05-03T03:16:41;102064.72;;;4.01;84.92
17593;BME280;8915;51.760;14.300;2023-05-03T03:19:07;102060.56;;;4.05;84.74
17593;BME280;8915;51.760;14.300;2023-05-03T03:21:33;102065.31;;;4.08;84.51
17593;BME280;8915;51.760;14.300;2023-05-03T03:24:01;102065.59;;;4.12;84.71
17593;BME280;8915;51.760;14.300;2023-05-03T03:26:29;102062.50;;;4.15;84.91
17593;BME280;8915;51.760;14.300;2023-05-03T03:28:56;102065.66;;;4.17;85.16
17593;BME280;8915;51.760;14.300;2023-05-03T03:31:23;102066.22;;;4.19;84.48
17593;BME280;8915;51.760;14.300;2023-05-03T03:33:51;102081.63;;;4.20;84.17
17593;BME280;8915;51.760;14.300;2023-05-03T03:36:19;102077.25;;;4.26;84.44
17593;BME280;8915;51.760;14.300;2023-05-03T03:38:47;102079.38;;;4.29;84.64
17593;BME280;8915;51.760;14.300;2023-05-03T03:41:14;102085.44;;;4.34;84.51
17593;BME280;8915;51.760;14.300;2023-05-03T03:43:42;102087.00;;;4.35;84.76
17593;BME280;8915;51.760;14.300;2023-05-03T03:46:15;102093.03;;;4.36;84.29
17593;BME280;8915;51.760;14.300;2023-05-03T03:48:41;102096.47;;;4.41;84.20
17593;BME280;8915;51.760;14.300;2023-05-03T03:51:08;102099.16;;;4.46;84.14
17593;BME280;8915;51.760;14.300;2023-05-03T03:53:41;102107.31;;;4.50;84.41
17593;BME280;8915;51.760;14.300;2023-05-03T03:56:08;102099.25;;;4.56;84.78
17593;BME280;8915;51.760;14.300;2023-05-03T03:58:34;102104.50;;;4.61;84.66
17593;BME280;8915;51.760;14.300;2023-05-03T04:01:04;102105.84;;;4.64;84.63
17593;BME280;8915;51.760;14.300;2023-05-03T04:03:31;102110.88;;;4.70;84.56
17593;BME280;8915;51.760;14.300;2023-05-03T04:05:58;102105.44;;;4.77;84.59
17593;BME280;8915;51.760;14.300;2023-05-03T04:08:25;102106.81;;;4.84;84.62
17593;BME280;8915;51.760;14.300;2023-05-03T04:10:52;102113.91;;;4.89;84.78
17593;BME280;8915;51.760;14.300;2023-05-03T04:13:19;102112.38;;;4.93;84.40
17593;BME280;8915;51.760;14.300;2023-05-03T04:15:53;102114.78;;;4.99;84.40
17593;BME280;8915;51.760;14.300;2023-05-03T04:18:20;102119.25;;;5.04;84.33
17593;BME280;8915;51.760;14.300;2023-05-03T04:20:47;102119.06;;;5.10;83.84
17593;BME280;8915;51.760;14.300;2023-05-03T04:23:15;102116.72;;;5.14;83.51
17593;BME280;8915;51.760;14.300;2023-05-03T04:25:42;102121.19;;;5.18;83.44
17593;BME280;8915;51.760;14.300;2023-05-03T04:28:11;102125.41;;;5.24;82.77
17593;BME280;8915;51.760;14.300;2023-05-03T04:30:42;102133.06;;;5.31;82.64
17593;BME280;8915;51.760;14.300;2023-05-03T04:33:09;102136.25;;;5.38;82.27
17593;BME280;8915;51.760;14.300;2023-05-03T04:35:38;102130.78;;;5.44;81.78
17593;BME280;8915;51.760;14.300;2023-05-03T04:38:08;102137.91;;;5.49;81.28
17593;BME280;8915;51.760;14.300;2023-05-03T04:40:35;102142.13;;;5.55;80.32
17593;BME280;8915;51.760;14.300;2023-05-03T04:43:06;102154.72;;;5.63;79.95
17593;BME280;8915;51.760;14.300;2023-05-03T04:45:36;102147.69;;;5.68;79.40
17593;BME280;8915;51.760;14.300;2023-05-03T04:48:24;102148.22;;;5.75;79.44
17593;BME280;8915;51.760;14.300;2023-05-03T04:51:19;102159.56;;;5.81;79.05
17593;BME280;8915;51.760;14.300;2023-05-03T04:53:59;102156.72;;;5.87;78.95
17593;BME280;8915;51.760;14.300;2023-05-03T04:57:05;102160.41;;;5.96;78.89
17593;BME280;8915;51.760;14.300;2023-05-03T04:59:26;102156.75;;;6.02;77.26
17593;BME280;8915;51.760;14.300;2023-05-03T05:02:00;102163.34;;;6.10;77.78
17593;BME280;8915;51.760;14.300;2023-05-03T05:04:36;102158.13;;;6.15;77.23
17593;BME280;8915;51.760;14.300;2023-05-03T05:07:13;102167.31;;;6.22;76.30
17593;BME280;8915;51.760;14.300;2023-05-03T05:09:50;102165.28;;;6.29;75.67
17593;BME280;8915;51.760;14.300;2023-05-03T05:12:33;102166.84;;;6.35;75.26
17593;BME280;8915;51.760;14.300;2023-05-03T05:15:05;102168.44;;;6.41;73.97
17593;BME280;8915;51.760;14.300;2023-05-03T05:17:32;102167.41;;;6.47;74.39
17593;BME280;8915;51.760;14.300;2023-05-03T05:20:03;102171.34;;;6.55;74.11
17593;BME280;8915;51.760;14.300;2023-05-03T05:22:46;102174.00;;;6.60;72.44
17593;BME280;8915;51.760;14.300;2023-05-03T05:25:16;102177.69;;;6.69;73.09
17593;BME280;8915;51.760;14.300;2023-05-03T05:27:45;102178.47;;;6.74;72.83
17593;BME280;8915;51.760;14.300;2023-05-03T05:30:27;102179.28;;;6.80;73.02
17593;BME280;8915;51.760;14.300;2023-05-03T05:33:20;102176.66;;;6.90;73.32
17593;BME280;8915;51.760;14.300;2023-05-03T05:36:06;102185.06;;;6.97;72.72
17593;BME280;8915;51.760;14.300;2023-05-03T05:41:35;102186.63;;;7.13;71.50
17593;BME280;8915;51.760;14.300;2023-05-03T05:44:15;102189.25;;;7.18;70.54
17593;BME280;8915;51.760;14.300;2023-05-03T05:46:45;102192.69;;;7.23;71.11
17593;BME280;8915;51.760;14.300;2023-05-03T05:49:50;102193.44;;;7.29;70.87
17593;BME280;8915;51.760;14.300;2023-05-03T05:52:16;102202.38;;;7.33;71.02
17593;BME280;8915;51.760;14.300;2023-05-03T05:54:44;102200.31;;;7.35;70.59
17593;BME280;8915;51.760;14.300;2023-05-03T05:57:11;102203.44;;;7.37;71.03
17593;BME280;8915;51.760;14.300;2023-05-03T05:59:38;102200.81;;;7.37;70.25
17593;BME280;8915;51.760;14.300;2023-05-03T06:02:12;102203.94;;;7.39;71.67
17593;BME280;8915;51.760;14.300;2023-05-03T06:05:18;102195.03;;;7.40;69.59
17593;BME280;8915;51.760;14.300;2023-05-03T06:07:49;102199.22;;;7.46;71.08
17593;BME280;8915;51.760;14.300;2023-05-03T06:10:28;102205.00;;;7.48;70.06
17593;BME280;8915;51.760;14.300;2023-05-03T06:12:56;102200.28;;;7.50;69.02
17593;BME280;8915;51.760;14.300;2023-05-03T06:15:24;102197.66;;;7.50;69.43
17593;BME280;8915;51.760;14.300;2023-05-03T06:17:52;102201.31;;;7.54;70.17
17593;BME280;8915;51.760;14.300;2023-05-03T06:20:23;102205.00;;;7.58;68.26
17593;BME280;8915;51.760;14.300;2023-05-03T06:22:53;102212.06;;;7.62;68.83
17593;BME280;8915;51.760;14.300;2023-05-03T06:25:22;102205.78;;;7.68;67.59
17593;BME280;8915;51.760;14.300;2023-05-03T06:27:54;102214.41;;;7.74;67.79
17593;BME280;8915;51.760;14.300;2023-05-03T06:30:26;102215.72;;;7.81;67.78
17593;BME280;8915;51.760;14.300;2023-05-03T06:32:58;102214.63;;;7.87;66.12
17593;BME280;8915;51.760;14.300;2023-05-03T06:35:26;102221.47;;;7.93;67.81
17593;BME280;8915;51.760;14.300;2023-05-03T06:37:52;102221.97;;;8.00;66.23
17593;BME280;8915;51.760;14.300;2023-05-03T06:40:19;102225.09;;;8.07;64.96
17593;BME280;8915;51.760;14.300;2023-05-03T06:42:49;102219.81;;;8.12;67.78
17593;BME280;8915;51.760;14.300;2023-05-03T06:45:32;102220.88;;;8.21;64.83
17593;BME280;8915;51.760;14.300;2023-05-03T06:48:11;102227.16;;;8.30;63.67
17593;BME280;8915;51.760;14.300;2023-05-03T06:50:47;102225.81;;;8.38;64.19
17593;BME280;8915;51.760;14.300;2023-05-03T06:53:43;102221.53;;;8.47;65.49
17593;BME280;8915;51.760;14.300;2023-05-03T06:56:10;102225.19;;;8.56;64.23
17593;BME280;8915;51.760;14.300;2023-05-03T06:58:36;102227.75;;;8.66;62.93
17593;BME280;8915;51.760;14.300;2023-05-03T07:01:07;102219.81;;;8.76;63.61
17593;BME280;8915;51.760;14.300;2023-05-03T07:03:41;102223.16;;;8.86;65.93
17593;BME280;8915;51.760;14.300;2023-05-03T07:06:09;102228.34;;;8.96;64.39
17593;BME280;8915;51.760;14.300;2023-05-03T07:08:42;102223.81;;;9.07;62.77
17593;BME280;8915;51.760;14.300;2023-05-03T07:11:09;102221.09;;;9.17;62.10
17593;BME280;8915;51.760;14.300;2023-05-03T07:13:38;102222.63;;;9.23;61.71
17593;BME280;8915;51.760;14.300;2023-05-03T07:16:06;102223.66;;;9.27;60.48
17593;BME280;8915;51.760;14.300;2023-05-03T07:18:39;102218.81;;;9.34;60.61
17593;BME280;8915;51.760;14.300;2023-05-03T07:21:05;102224.56;;;9.41;63.21
17593;BME280;8915;51.760;14.300;2023-05-03T07:23:35;102227.91;;;9.51;59.90
17593;BME280;8915;51.760;14.300;2023-05-03T07:26:10;102228.34;;;9.58;59.85
17593;BME280;8915;51.760;14.300;2023-05-03T07:28:46;102232.75;;;9.68;62.92
17593;BME280;8915;51.760;14.300;2023-05-03T07:31:31;102222.66;;;9.75;60.04
17593;BME280;8915;51.760;14.300;2023-05-03T07:34:01;102222.06;;;9.83;59.98
17593;BME280;8915;51.760;14.300;2023-05-03T07:36:27;102223.78;;;9.92;63.12
17593;BME280;8915;51.760;14.300;2023-05-03T07:38:54;102222.38;;;10.00;60.62
17593;BME280;8915;51.760;14.300;2023-05-03T07:41:26;102225.72;;;10.10;59.49
17593;BME280;8915;51.760;14.300;2023-05-03T07:43:53;102224.56;;;10.21;56.98
17593;BME280;8915;51.760;14.300;2023-05-03T07:46:22;102220.41;;;10.34;55.12
17593;BME280;8915;51.760;14.300;2023-05-03T07:48:53;102215.22;;;10.47;54.04
17593;BME280;8915;51.760;14.300;2023-05-03T07:51:23;102209.72;;;10.62;56.76
17593;BME280;8915;51.760;14.300;2023-05-03T07:53:53;102211.38;;;10.77;56.83
17593;BME280;8915;51.760;14.300;2023-05-03T07:56:32;102218.06;;;10.88;54.21
17593;BME280;8915;51.760;14.300;2023-05-03T07:59:02;102213.72;;;10.97;57.42
17593;BME280;8915;51.760;14.300;2023-05-03T08:01:29;102219.41;;;11.04;54.95
17593;BME280;8915;51.760;14.300;2023-05-03T08:04:00;102216.59;;;11.14;53.95
17593;BME280;8915;51.760;14.300;2023-05-03T08:06:30;102214.88;;;11.23;56.80
17593;BME280;8915;51.760;14.300;2023-05-03T08:09:02;102213.13;;;11.32;52.24
17593;BME280;8915;51.760;14.300;2023-05-03T08:11:41;102211.38;;;11.41;52.33
17593;BME280;8915;51.760;14.300;2023-05-03T08:14:09;102206.19;;;11.49;54.99
17593;BME280;8915;51.760;14.300;2023-05-03T08:16:36;102213.47;;;11.57;54.50
17593;BME280;8915;51.760;14.300;2023-05-03T08:19:07;102216.53;;;11.64;51.22
17593;BME280;8915;51.760;14.300;2023-05-03T08:21:37;102209.31;;;11.70;53.68
17593;BME280;8915;51.760;14.300;2023-05-03T08:24:10;102213.53;;;11.71;50.94
17593;BME280;8915;51.760;14.300;2023-05-03T08:26:41;102213.91;;;11.78;52.64
17593;BME280;8915;51.760;14.300;2023-05-03T08:29:07;102211.16;;;11.83;53.17
17593;BME280;8915;51.760;14.300;2023-05-03T08:31:45;102211.06;;;11.88;59.47
17593;BME280;8915;51.760;14.300;2023-05-03T08:34:13;102214.72;;;11.92;51.00
17593;BME280;8915;51.760;14.300;2023-05-03T08:36:44;102219.00;;;12.01;51.56
17593;BME280;8915;51.760;14.300;2023-05-03T08:39:12;102215.88;;;12.13;50.40
17593;BME280;8915;51.760;14.300;2023-05-03T08:41:44;102223.31;;;12.24;52.76
17593;BME280;8915;51.760;14.300;2023-05-03T08:44:19;102217.19;;;12.37;53.03
17593;BME280;8915;51.760;14.300;2023-05-03T08:46:46;102217.91;;;12.43;48.53
17593;BME280;8915;51.760;14.300;2023-05-03T08:49:15;102222.69;;;12.54;52.70
17593;BME280;8915;51.760;14.300;2023-05-03T08:51:43;102227.31;;;12.71;48.21
17593;BME280;8915;51.760;14.300;2023-05-03T08:54:11;102225.72;;;12.83;48.28
17593;BME280;8915;51.760;14.300;2023-05-03T08:56:40;102219.41;;;12.93;45.86
17593;BME280;8915;51.760;14.300;2023-05-03T08:59:07;102215.94;;;13.06;49.14
17593;BME280;8915;51.760;14.300;2023-05-03T09:01:34;102218.53;;;13.19;50.13
17593;BME280;8915;51.760;14.300;2023-05-03T09:04:01;102222.00;;;13.28;48.74
17593;BME280;8915;51.760;14.300;2023-05-03T09:06:29;102218.16;;;13.34;44.60
17593;BME280;8915;51.760;14.300;2023-05-03T09:08:57;102211.16;;;13.38;46.61
17593;BME280;8915;51.760;14.300;2023-05-03T09:11:39;102224.28;;;13.43;48.31
17593;BME280;8915;51.760;14.300;2023-05-03T09:14:08;102218.84;;;13.48;46.29
17593;BME280;8915;51.760;14.300;2023-05-03T09:16:39;102226.69;;;13.53;48.12
17593;BME280;8915;51.760;14.300;2023-05-03T09:19:13;102220.16;;;13.59;49.18
17593;BME280;8915;51.760;14.300;2023-05-03T09:21:42;102225.03;;;13.66;47.41
17593;BME280;8915;51.760;14.300;2023-05-03T09:24:13;102211.78;;;13.74;48.06
17593;BME280;8915;51.760;14.300;2023-05-03T09:26:51;102216.31;;;13.82;47.56
17593;BME280;8915;51.760;14.300;2023-05-03T09:29:28;102228.03;;;13.81;44.57
17593;BME280;8915;51.760;14.300;2023-05-03T09:31:59;102222.28;;;13.79;48.46
17593;BME280;8915;51.760;14.300;2023-05-03T09:34:26;102219.53;;;13.62;45.51
17593;BME280;8915;51.760;14.300;2023-05-03T09:36:53;102224.22;;;13.65;45.77
17593;BME280;8915;51.760;14.300;2023-05-03T09:39:20;102220.31;;;13.63;45.77
17593;BME280;8915;51.760;14.300;2023-05-03T09:41:47;102219.72;;;13.66;45.90
17593;BME280;8915;51.760;14.300;2023-05-03T09:44:13;102222.84;;;13.68;47.56
17593;BME280;8915;51.760;14.300;2023-05-03T09:47:01;102217.84;;;13.75;44.46
17593;BME280;8915;51.760;14.300;2023-05-03T09:49:33;102220.75;;;13.87;51.15
17593;BME280;8915;51.760;14.300;2023-05-03T09:52:04;102221.38;;;14.01;46.79
17593;BME280;8915;51.760;14.300;2023-05-03T09:54:43;102214.78;;;14.20;44.27
17593;BME280;8915;51.760;14.300;2023-05-03T09:57:25;102210.44;;;14.41;44.35
17593;BME280;8915;51.760;14.300;2023-05-03T09:59:59;102213.09;;;14.58;42.75
17593;BME280;8915;51.760;14.300;2023-05-03T10:02:26;102207.75;;;14.75;41.68
17593;BME280;8915;51.760;14.300;2023-05-03T10:04:56;102210.59;;;14.87;42.88
17593;BME280;8915;51.760;14.300;2023-05-03T10:07:26;102216.69;;;14.79;46.82
17593;BME280;8915;51.760;14.300;2023-05-03T10:09:54;102210.09;;;14.85;41.95
17593;BME280;8915;51.760;14.300;2023-05-03T10:12:21;102200.53;;;15.01;49.94
17593;BME280;8915;51.760;14.300;2023-05-03T10:14:48;102196.44;;;15.12;48.61
17593;BME280;8915;51.760;14.300;2023-05-03T10:17:20;102199.59;;;15.14;43.62
17593;BME280;8915;51.760;14.300;2023-05-03T10:19:53;102184.38;;;15.15;42.00
17593;BME280;8915;51.760;14.300;2023-05-03T10:22:28;102195.50;;;15.17;40.07
17593;BME280;8915;51.760;14.300;2023-05-03T10:25:08;102183.75;;;15.18;47.36
17593;BME280;8915;51.760;14.300;2023-05-03T10:27:49;102190.34;;;15.12;51.40
17593;BME280;8915;51.760;14.300;2023-05-03T10:30:26;102185.81;;;15.04;48.34
17593;BME280;8915;51.760;14.300;2023-05-03T10:32:55;102181.78;;;14.89;40.61
17593;BME280;8915;51.760;14.300;2023-05-03T10:35:26;102187.44;;;14.79;44.10
17593;BME280;8915;51.760;14.300;2023-05-03T10:37:57;102185.88;;;14.78;48.37
17593;BME280;8915;51.760;14.300;2023-05-03T10:40:54;102189.00;;;14.72;44.03
17593;BME280;8915;51.760;14.300;2023-05-03T10:43:44;102191.34;;;14.73;45.31
17593;BME280;8915;51.760;14.300;2023-05-03T10:48:43;102185.22;;;14.73;47.59
17593;BME280;8915;51.760;14.300;2023-05-03T10:51:42;102182.41;;;14.78;47.63
17593;BME280;8915;51.760;14.300;2023-05-03T10:54:11;102181.94;;;14.84;48.82
17593;BME280;8915;51.760;14.300;2023-05-03T10:56:51;102186.66;;;14.87;47.22
17593;BME280;8915;51.760;14.300;2023-05-03T10:59:24;102187.25;;;14.93;47.73
17593;BME280;8915;51.760;14.300;2023-05-03T11:01:55;102184.91;;;15.00;46.36
17593;BME280;8915;51.760;14.300;2023-05-03T11:04:32;102178.16;;;15.11;43.93
17593;BME280;8915;51.760;14.300;2023-05-03T11:07:02;102175.63;;;15.23;45.24
17593;BME280;8915;51.760;14.300;2023-05-03T11:09:31;102162.44;;;15.35;45.54
17593;BME280;8915;51.760;14.300;2023-05-03T11:12:04;102168.34;;;15.49;45.05
17593;BME280;8915;51.760;14.300;2023-05-03T11:14:34;102168.78;;;15.59;42.96
17593;BME280;8915;51.760;14.300;2023-05-03T11:17:09;102166.53;;;15.70;45.24
17593;BME280;8915;51.760;14.300;2023-05-03T11:19:36;102169.63;;;15.80;46.06
17593;BME280;8915;51.760;14.300;2023-05-03T11:22:03;102176.63;;;15.85;45.07
17593;BME280;8915;51.760;14.300;2023-05-03T11:24:32;102174.16;;;15.80;39.74
17593;BME280;8915;51.760;14.300;2023-05-03T11:27:03;102180.94;;;15.69;40.33
17593;BME280;8915;51.760;14.300;2023-05-03T11:32:16;102167.56;;;15.57;44.11
17593;BME280;8915;51.760;14.300;2023-05-03T11:34:43;102171.81;;;15.49;43.92
17593;BME280;8915;51.760;14.300;2023-05-03T11:37:10;102161.03;;;15.37;41.45
17593;BME280;8915;51.760;14.300;2023-05-03T11:39:38;102166.69;;;15.36;44.10
17593;BME280;8915;51.760;14.300;2023-05-03T11:42:04;102166.69;;;15.36;45.10
17593;BME280;8915;51.760;14.300;2023-05-03T11:44:31;102161.16;;;15.41;45.94
17593;BME280;8915;51.760;14.300;2023-05-03T11:46:58;102164.44;;;15.46;42.28
17593;BME280;8915;51.760;14.300;2023-05-03T11:49:25;102169.59;;;15.51;42.52
17593;BME280;8915;51.760;14.300;2023-05-03T11:51:51;102169.41;;;15.56;42.41
17593;BME280;8915;51.760;14.300;2023-05-03T11:54:22;102161.13;;;15.58;39.33
17593;BME280;8915;51.760;14.300;2023-05-03T11:56:53;102164.88;;;15.57;38.63
17593;BME280;8915;51.760;14.300;2023-05-03T11:59:32;102160.94;;;15.63;40.70
17593;BME280;8915;51.760;14.300;2023-05-03T12:02:00;102158.72;;;15.65;40.73
17593;BME280;8915;51.760;14.300;2023-05-03T12:04:28;102163.06;;;15.69;39.71
17593;BME280;8915;51.760;14.300;2023-05-03T12:06:55;102158.50;;;15.78;42.05
17593;BME280;8915;51.760;14.300;2023-05-03T12:09:34;102164.75;;;15.82;38.50
17593;BME280;8915;51.760;14.300;2023-05-03T12:12:05;102159.28;;;15.79;37.40
17593;BME280;8915;51.760;14.300;2023-05-03T12:14:57;102162.00;;;15.70;40.72
17593;BME280;8915;51.760;14.300;2023-05-03T12:17:33;102156.56;;;15.58;36.66
17593;BME280;8915;51.760;14.300;2023-05-03T12:20:17;102162.22;;;15.57;39.30
17593;BME280;8915;51.760;14.300;2023-05-03T12:22:51;102155.97;;;15.53;38.90
17593;BME280;8915;51.760;14.300;2023-05-03T12:25:23;102157.53;;;15.54;40.77
17593;BME280;8915;51.760;14.300;2023-05-03T12:27:55;102145.75;;;15.55;41.98
17593;BME280;8915;51.760;14.300;2023-05-03T12:30:22;102150.59;;;15.61;44.89
17593;BME280;8915;51.760;14.300;2023-05-03T12:32:49;102152.75;;;15.68;41.67
17593;BME280;8915;51.760;14.300;2023-05-03T12:35:24;102143.00;;;15.72;43.14
17593;BME280;8915;51.760;14.300;2023-05-03T12:37:55;102142.69;;;15.73;42.05
17593;BME280;8915;51.760;14.300;2023-05-03T12:40:22;102133.28;;;15.76;39.53
17593;BME280;8915;51.760;14.300;2023-05-03T12:42:57;102138.75;;;15.79;41.39
17593;BME280;8915;51.760;14.300;2023-05-03T12:45:26;102142.13;;;15.88;41.04
17593;BME280;8915;51.760;14.300;2023-05-03T12:47:54;102127.06;;;15.92;40.82
17593;BME280;8915;51.760;14.300;2023-05-03T12:50:21;102127.34;;;15.99;45.04
17593;BME280;8915;51.760;14.300;2023-05-03T12:52:47;102126.38;;;16.04;43.46
17593;BME280;8915;51.760;14.300;2023-05-03T12:55:14;102128.84;;;16.09;43.56
17593;BME280;8915;51.760;14.300;2023-05-03T12:57:43;102127.75;;;16.10;44.29
17593;BME280;8915;51.760;14.300;2023-05-03T13:00:13;102126.00;;;16.14;40.49
17593;BME280;8915;51.760;14.300;2023-05-03T13:02:47;102125.34;;;16.17;37.23
17593;BME280;8915;51.760;14.300;2023-05-03T13:05:18;102129.41;;;16.14;39.11
17593;BME280;8915;51.760;14.300;2023-05-03T13:07:45;102126.31;;;16.12;39.47
17593;BME280;8915;51.760;14.300;2023-05-03T13:10:15;102128.50;;;16.10;37.67
17593;BME280;8915;51.760;14.300;2023-05-03T13:12:52;102123.53;;;16.09;39.51
17593;BME280;8915;51.760;14.300;2023-05-03T13:15:21;102122.41;;;16.10;44.06
17593;BME280;8915;51.760;14.300;2023-05-03T13:17:48;102117.53;;;16.12;41.00
17593;BME280;8915;51.760;14.300;2023-05-03T13:20:15;102113.25;;;16.19;41.15
17593;BME280;8915;51.760;14.300;2023-05-03T13:22:44;102116.63;;;16.28;38.77